sensor_id;sensor_type;location;lat;lon;timestamp;temperature;humidity
29093;DHT22;16167;48.768;14.984;2024-03-23T00:51:57;8.40;1.00
29093;DHT22;16167;48.768;14.984;2024-03-23T00:54:24;8.30;1.00
29093;DHT22;16167;48.768;14.984;2024-03-23T00:56:50;8.30;1.00
29093;DHT22;16167;48.768;14.984;2024-03-23T00:59:18;8.40;1.00
29093;DHT22;16167;48.768;14.984;2024-03-23T01:01:45;8.30;1.00
29093;DHT22;16167;48.768;14.984;2024-03-23T01:04:12;8.30;1.00
29093;DHT22;16167;48.768;14.984;2024-03-23T01:06:38;8.30;1.00
29093;DHT22;16167;48.768;14.984;2024-03-23T01:09:07;8.30;1.00
29093;DHT22;16167;48.768;14.984;2024-03-23T01:11:36;8.30;1.00
29093;DHT22;16167;48.768;14.984;2024-03-23T01:14:03;8.40;1.00
29093;DHT22;16167;48.768;14.984;2024-03-23T01:16:29;8.40;1.00
29093;DHT22;16167;48.768;14.984;2024-03-23T01:18:56;8.40;1.00
29093;DHT22;16167;48.768;14.984;2024-03-23T01:21:22;8.40;1.00
29093;DHT22;16167;48.768;14.984;2024-03-23T01:23:49;8.40;1.00
29093;DHT22;16167;48.768;14.984;2024-03-23T01:26:17;8.40;2.50
29093;DHT22;16167;48.768;14.984;2024-03-23T01:28:44;8.30;1.00
29093;DHT22;16167;48.768;14.984;2024-03-23T01:31:10;8.40;1.00
29093;DHT22;16167;48.768;14.984;2024-03-23T01:33:37;8.40;1.00
29093;DHT22;16167;48.768;14.984;2024-03-23T01:36:03;8.40;1.00
29093;DHT22;16167;48.768;14.984;2024-03-23T01:38:30;8.40;1.00
29093;DHT22;16167;48.768;14.984;2024-03-23T01:40:57;8.40;1.00
29093;DHT22;16167;48.768;14.984;2024-03-23T01:43:25;8.40;1.00
29093;DHT22;16167;48.768;14.984;2024-03-23T01:45:51;8.40;1.00
29093;DHT22;16167;48.768;14.984;2024-03-23T01:48:19;8.50;1.00
29093;DHT22;16167;48.768;14.984;2024-03-23T01:50:46;8.40;1.00
29093;DHT22;16167;48.768;14.984;2024-03-23T01:53:14;8.40;1.00
29093;DHT22;16167;48.768;14.984;2024-03-23T01:55:43;8.40;1.00
29093;DHT22;16167;48.768;14.984;2024-03-23T01:58:10;8.40;1.00
29093;DHT22;16167;48.768;14.984;2024-03-23T02:03:22;8.40;1.00
29093;DHT22;16167;48.768;14.984;2024-03-23T02:05:51;8.40;1.00
29093;DHT22;16167;48.768;14.984;2024-03-23T02:08:18;8.40;1.00
29093;DHT22;16167;48.768;14.984;2024-03-23T02:10:48;8.40;1.00
29093;DHT22;16167;48.768;14.984;2024-03-23T02:13:14;8.40;1.00
29093;DHT22;16167;48.768;14.984;2024-03-23T02:15:42;8.40;1.00
29093;DHT22;16167;48.768;14.984;2024-03-23T02:18:08;8.40;1.00
29093;DHT22;16167;48.768;14.984;2024-03-23T02:20:37;8.40;1.00
29093;DHT22;16167;48.768;14.984;2024-03-23T02:23:05;8.40;1.00
29093;DHT22;16167;48.768;14.984;2024-03-23T02:25:33;8.40;1.00
29093;DHT22;16167;48.768;14.984;2024-03-23T02:27:59;8.40;2.80
29093;DHT22;16167;48.768;14.984;2024-03-23T02:30:26;8.30;7.60
29093;DHT22;16167;48.768;14.984;2024-03-23T02:32:52;8.30;10.20
29093;DHT22;16167;48.768;14.984;2024-03-23T02:35:19;8.30;10.90
29093;DHT22;16167;48.768;14.984;2024-03-23T02:37:46;8.30;11.80
29093;DHT22;16167;48.768;14.984;2024-03-23T02:40:15;8.30;14.00
29093;DHT22;16167;48.768;14.984;2024-03-23T02:42:41;8.30;6.20
29093;DHT22;16167;48.768;14.984;2024-03-23T02:45:08;8.30;5.00
29093;DHT22;16167;48.768;14.984;2024-03-23T02:47:34;8.30;7.40
29093;DHT22;16167;48.768;14.984;2024-03-23T02:50:01;8.30;7.40
29093;DHT22;16167;48.768;14.984;2024-03-23T02:52:27;8.20;4.60
29093;DHT22;16167;48.768;14.984;2024-03-23T02:54:54;8.20;9.50
29093;DHT22;16167;48.768;14.984;2024-03-23T02:57:22;8.20;2.10
29093;DHT22;16167;48.768;14.984;2024-03-23T02:59:49;8.20;8.40
29093;DHT22;16167;48.768;14.984;2024-03-23T03:02:15;8.20;19.20
29093;DHT22;16167;48.768;14.984;2024-03-23T03:04:42;8.20;18.10
29093;DHT22;16167;48.768;14.984;2024-03-23T03:07:08;8.20;19.60
29093;DHT22;16167;48.768;14.984;2024-03-23T03:09:35;8.20;22.00
29093;DHT22;16167;48.768;14.984;2024-03-23T03:12:01;8.20;20.60
29093;DHT22;16167;48.768;14.984;2024-03-23T03:14:30;8.20;22.20
29093;DHT22;16167;48.768;14.984;2024-03-23T03:16:56;8.20;20.00
29093;DHT22;16167;48.768;14.984;2024-03-23T03:19:23;8.20;15.70
29093;DHT22;16167;48.768;14.984;2024-03-23T03:21:49;8.20;14.30
29093;DHT22;16167;48.768;14.984;2024-03-23T03:24:16;8.20;20.50
29093;DHT22;16167;48.768;14.984;2024-03-23T03:26:42;8.20;22.30
29093;DHT22;16167;48.768;14.984;2024-03-23T03:29:09;8.20;17.30
29093;DHT22;16167;48.768;14.984;2024-03-23T03:31:37;8.20;16.40
29093;DHT22;16167;48.768;14.984;2024-03-23T03:34:04;8.20;17.50
29093;DHT22;16167;48.768;14.984;2024-03-23T03:36:30;8.20;12.40
29093;DHT22;16167;48.768;14.984;2024-03-23T03:38:57;8.20;12.60
29093;DHT22;16167;48.768;14.984;2024-03-23T03:41:23;8.20;12.80
29093;DHT22;16167;48.768;14.984;2024-03-23T03:43:50;8.20;12.40
29093;DHT22;16167;48.768;14.984;2024-03-23T03:46:17;8.20;12.50
29093;DHT22;16167;48.768;14.984;2024-03-23T03:48:45;8.10;8.60
29093;DHT22;16167;48.768;14.984;2024-03-23T03:51:13;8.10;9.20
29093;DHT22;16167;48.768;14.984;2024-03-23T03:53:40;8.10;8.90
29093;DHT22;16167;48.768;14.984;2024-03-23T03:56:07;8.00;8.10
29093;DHT22;16167;48.768;14.984;2024-03-23T03:58:33;8.00;4.80
29093;DHT22;16167;48.768;14.984;2024-03-23T04:00:59;8.10;6.50
29093;DHT22;16167;48.768;14.984;2024-03-23T04:03:26;8.10;7.00
29093;DHT22;16167;48.768;14.984;2024-03-23T04:05:54;8.10;8.90
29093;DHT22;16167;48.768;14.984;2024-03-23T04:08:21;8.00;12.80
29093;DHT22;16167;48.768;14.984;2024-03-23T04:10:47;7.90;14.40
29093;DHT22;16167;48.768;14.984;2024-03-23T04:13:14;7.90;18.20
29093;DHT22;16167;48.768;14.984;2024-03-23T04:15:40;7.80;11.20
29093;DHT22;16167;48.768;14.984;2024-03-23T04:18:07;7.70;14.90
29093;DHT22;16167;48.768;14.984;2024-03-23T04:20:34;7.70;20.70
29093;DHT22;16167;48.768;14.984;2024-03-23T04:23:02;7.60;20.80
29093;DHT22;16167;48.768;14.984;2024-03-23T04:25:28;7.60;23.40
29093;DHT22;16167;48.768;14.984;2024-03-23T04:27:55;7.60;18.20
29093;DHT22;16167;48.768;14.984;2024-03-23T04:30:22;7.60;18.40
29093;DHT22;16167;48.768;14.984;2024-03-23T04:32:50;7.50;17.10
29093;DHT22;16167;48.768;14.984;2024-03-23T04:35:16;7.40;14.00
29093;DHT22;16167;48.768;14.984;2024-03-23T04:37:45;7.40;16.00
29093;DHT22;16167;48.768;14.984;2024-03-23T04:40:14;7.40;17.70
29093;DHT22;16167;48.768;14.984;2024-03-23T04:42:41;7.40;13.70
29093;DHT22;16167;48.768;14.984;2024-03-23T04:45:08;7.30;13.40
29093;DHT22;16167;48.768;14.984;2024-03-23T04:47:36;7.30;10.40
29093;DHT22;16167;48.768;14.984;2024-03-23T04:50:03;7.30;11.60
29093;DHT22;16167;48.768;14.984;2024-03-23T04:52:31;7.40;16.20
29093;DHT22;16167;48.768;14.984;2024-03-23T04:54:58;7.50;11.60
29093;DHT22;16167;48.768;14.984;2024-03-23T04:57:26;7.70;10.70
29093;DHT22;16167;48.768;14.984;2024-03-23T04:59:52;8.10;7.80
29093;DHT22;16167;48.768;14.984;2024-03-23T05:02:19;8.40;1.00
29093;DHT22;16167;48.768;14.984;2024-03-23T05:04:45;8.60;1.00
29093;DHT22;16167;48.768;14.984;2024-03-23T05:07:12;8.80;1.00
29093;DHT22;16167;48.768;14.984;2024-03-23T05:09:38;9.00;1.00
29093;DHT22;16167;48.768;14.984;2024-03-23T05:12:05;9.20;1.00
29093;DHT22;16167;48.768;14.984;2024-03-23T05:14:33;9.30;1.00
29093;DHT22;16167;48.768;14.984;2024-03-23T05:17:00;9.40;1.00
29093;DHT22;16167;48.768;14.984;2024-03-23T05:19:27;9.50;1.00
29093;DHT22;16167;48.768;14.984;2024-03-23T05:21:54;9.60;1.00
29093;DHT22;16167;48.768;14.984;2024-03-23T05:24:20;9.60;1.00
29093;DHT22;16167;48.768;14.984;2024-03-23T05:26:47;9.60;1.00
29093;DHT22;16167;48.768;14.984;2024-03-23T05:29:13;9.70;1.00
29093;DHT22;16167;48.768;14.984;2024-03-23T05:31:41;9.70;1.00
29093;DHT22;16167;48.768;14.984;2024-03-23T05:34:07;9.80;1.00
29093;DHT22;16167;48.768;14.984;2024-03-23T05:36:34;9.90;1.00
29093;DHT22;16167;48.768;14.984;2024-03-23T05:39:02;9.90;1.00
29093;DHT22;16167;48.768;14.984;2024-03-23T05:41:29;9.90;1.00
29093;DHT22;16167;48.768;14.984;2024-03-23T05:43:55;9.90;1.00
29093;DHT22;16167;48.768;14.984;2024-03-23T05:46:22;10.00;1.00
29093;DHT22;16167;48.768;14.984;2024-03-23T05:48:49;10.00;1.00
29093;DHT22;16167;48.768;14.984;2024-03-23T05:51:16;10.00;1.00
29093;DHT22;16167;48.768;14.984;2024-03-23T05:53:43;10.10;1.00
29093;DHT22;16167;48.768;14.984;2024-03-23T05:56:10;10.10;1.00
29093;DHT22;16167;48.768;14.984;2024-03-23T05:58:36;10.10;1.00
29093;DHT22;16167;48.768;14.984;2024-03-23T06:01:03;10.20;1.00
29093;DHT22;16167;48.768;14.984;2024-03-23T06:03:29;10.20;1.00
29093;DHT22;16167;48.768;14.984;2024-03-23T06:05:57;10.30;1.00
29093;DHT22;16167;48.768;14.984;2024-03-23T06:08:23;10.40;1.00
29093;DHT22;16167;48.768;14.984;2024-03-23T06:10:51;10.60;1.00
29093;DHT22;16167;48.768;14.984;2024-03-23T06:13:17;10.60;1.00
29093;DHT22;16167;48.768;14.984;2024-03-23T06:15:44;10.70;1.00
29093;DHT22;16167;48.768;14.984;2024-03-23T06:18:12;11.00;1.00
29093;DHT22;16167;48.768;14.984;2024-03-23T06:20:39;11.20;1.00
29093;DHT22;16167;48.768;14.984;2024-03-23T06:23:06;11.40;1.00
29093;DHT22;16167;48.768;14.984;2024-03-23T06:25:34;11.60;1.00
29093;DHT22;16167;48.768;14.984;2024-03-23T06:28:00;11.70;1.00
29093;DHT22;16167;48.768;14.984;2024-03-23T06:30:28;11.90;1.00
29093;DHT22;16167;48.768;14.984;2024-03-23T06:32:55;12.10;1.00
29093;DHT22;16167;48.768;14.984;2024-03-23T06:35:22;12.20;1.00
29093;DHT22;16167;48.768;14.984;2024-03-23T06:37:48;12.40;1.00
29093;DHT22;16167;48.768;14.984;2024-03-23T06:40:16;12.70;1.00
29093;DHT22;16167;48.768;14.984;2024-03-23T06:42:42;12.90;1.00
29093;DHT22;16167;48.768;14.984;2024-03-23T06:45:09;13.10;1.00
29093;DHT22;16167;48.768;14.984;2024-03-23T06:47:35;13.10;1.00
29093;DHT22;16167;48.768;14.984;2024-03-23T06:50:03;13.20;1.00
29093;DHT22;16167;48.768;14.984;2024-03-23T06:52:29;13.20;1.00
29093;DHT22;16167;48.768;14.984;2024-03-23T06:54:56;13.20;1.00
29093;DHT22;16167;48.768;14.984;2024-03-23T06:57:24;13.30;1.00
29093;DHT22;16167;48.768;14.984;2024-03-23T06:59:51;13.30;1.00
29093;DHT22;16167;48.768;14.984;2024-03-23T07:02:17;13.30;1.00
29093;DHT22;16167;48.768;14.984;2024-03-23T07:04:44;13.30;1.00
29093;DHT22;16167;48.768;14.984;2024-03-23T07:07:10;13.30;1.00
29093;DHT22;16167;48.768;14.984;2024-03-23T07:09:37;13.30;1.00
29093;DHT22;16167;48.768;14.984;2024-03-23T07:12:03;13.40;1.00
29093;DHT22;16167;48.768;14.984;2024-03-23T07:14:32;13.40;1.00
29093;DHT22;16167;48.768;14.984;2024-03-23T07:16:58;13.40;1.00
29093;DHT22;16167;48.768;14.984;2024-03-23T07:19:25;13.40;1.00
29093;DHT22;16167;48.768;14.984;2024-03-23T07:21:51;13.40;1.00
29093;DHT22;16167;48.768;14.984;2024-03-23T07:24:18;13.40;1.00
29093;DHT22;16167;48.768;14.984;2024-03-23T07:26:44;13.30;1.00
29093;DHT22;16167;48.768;14.984;2024-03-23T07:29:12;13.50;1.00
29093;DHT22;16167;48.768;14.984;2024-03-23T07:31:39;13.70;1.00
29093;DHT22;16167;48.768;14.984;2024-03-23T07:34:07;13.80;1.00
29093;DHT22;16167;48.768;14.984;2024-03-23T07:36:33;14.00;1.00
29093;DHT22;16167;48.768;14.984;2024-03-23T07:39:00;14.20;1.00
29093;DHT22;16167;48.768;14.984;2024-03-23T07:41:28;14.40;1.00
29093;DHT22;16167;48.768;14.984;2024-03-23T07:43:54;14.60;1.00
29093;DHT22;16167;48.768;14.984;2024-03-23T07:46:21;14.80;1.00
29093;DHT22;16167;48.768;14.984;2024-03-23T07:48:49;15.00;1.00
29093;DHT22;16167;48.768;14.984;2024-03-23T07:51:16;15.00;1.00
29093;DHT22;16167;48.768;14.984;2024-03-23T07:53:43;15.20;1.00
29093;DHT22;16167;48.768;14.984;2024-03-23T07:56:10;15.40;1.00
29093;DHT22;16167;48.768;14.984;2024-03-23T07:58:37;15.50;1.00
29093;DHT22;16167;48.768;14.984;2024-03-23T08:01:04;15.50;1.00
29093;DHT22;16167;48.768;14.984;2024-03-23T08:03:30;15.60;1.00
29093;DHT22;16167;48.768;14.984;2024-03-23T08:05:59;15.70;1.00
29093;DHT22;16167;48.768;14.984;2024-03-23T08:08:32;16.00;1.00
29093;DHT22;16167;48.768;14.984;2024-03-23T08:10:59;16.10;1.00
29093;DHT22;16167;48.768;14.984;2024-03-23T08:13:25;16.30;1.00
29093;DHT22;16167;48.768;14.984;2024-03-23T08:15:52;16.40;1.00
29093;DHT22;16167;48.768;14.984;2024-03-23T08:18:18;16.50;1.00
29093;DHT22;16167;48.768;14.984;2024-03-23T08:20:46;16.60;1.00
29093;DHT22;16167;48.768;14.984;2024-03-23T08:23:13;16.80;1.00
29093;DHT22;16167;48.768;14.984;2024-03-23T08:25:40;16.80;1.00
29093;DHT22;16167;48.768;14.984;2024-03-23T08:28:06;17.00;1.00
29093;DHT22;16167;48.768;14.984;2024-03-23T08:30:34;17.10;1.00
29093;DHT22;16167;48.768;14.984;2024-03-23T08:33:00;17.20;1.00
29093;DHT22;16167;48.768;14.984;2024-03-23T08:35:28;17.40;1.00
29093;DHT22;16167;48.768;14.984;2024-03-23T08:37:53;17.60;1.00
29093;DHT22;16167;48.768;14.984;2024-03-23T08:40:22;17.70;1.00
29093;DHT22;16167;48.768;14.984;2024-03-23T08:42:48;18.00;1.00
29093;DHT22;16167;48.768;14.984;2024-03-23T08:45:15;18.10;1.00
29093;DHT22;16167;48.768;14.984;2024-03-23T08:47:41;18.20;1.00
29093;DHT22;16167;48.768;14.984;2024-03-23T08:50:08;18.30;1.00
29093;DHT22;16167;48.768;14.984;2024-03-23T08:52:34;18.40;1.00
29093;DHT22;16167;48.768;14.984;2024-03-23T08:55:02;18.50;1.00
29093;DHT22;16167;48.768;14.984;2024-03-23T08:57:29;18.50;1.00
29093;DHT22;16167;48.768;14.984;2024-03-23T08:59:56;18.50;1.00
29093;DHT22;16167;48.768;14.984;2024-03-23T09:02:22;18.60;1.00
29093;DHT22;16167;48.768;14.984;2024-03-23T09:04:49;18.70;1.00
29093;DHT22;16167;48.768;14.984;2024-03-23T09:07:16;18.80;1.00
29093;DHT22;16167;48.768;14.984;2024-03-23T09:09:43;18.90;1.00
29093;DHT22;16167;48.768;14.984;2024-03-23T09:12:09;19.20;1.00
29093;DHT22;16167;48.768;14.984;2024-03-23T09:14:37;19.10;1.00
29093;DHT22;16167;48.768;14.984;2024-03-23T09:17:03;19.20;1.00
29093;DHT22;16167;48.768;14.984;2024-03-23T09:19:31;19.40;1.00
29093;DHT22;16167;48.768;14.984;2024-03-23T09:21:57;19.30;1.00
29093;DHT22;16167;48.768;14.984;2024-03-23T09:24:24;19.40;1.00
29093;DHT22;16167;48.768;14.984;2024-03-23T09:26:51;19.40;1.00
29093;DHT22;16167;48.768;14.984;2024-03-23T09:29:18;19.80;1.00
29093;DHT22;16167;48.768;14.984;2024-03-23T09:31:46;19.70;1.00
29093;DHT22;16167;48.768;14.984;2024-03-23T09:34:13;19.70;1.00
29093;DHT22;16167;48.768;14.984;2024-03-23T09:36:39;19.70;1.00
29093;DHT22;16167;48.768;14.984;2024-03-23T09:39:06;19.90;1.00
29093;DHT22;16167;48.768;14.984;2024-03-23T09:41:32;20.20;1.00
29093;DHT22;16167;48.768;14.984;2024-03-23T09:43:59;20.30;1.00
29093;DHT22;16167;48.768;14.984;2024-03-23T09:46:26;20.10;1.00
29093;DHT22;16167;48.768;14.984;2024-03-23T09:48:56;19.90;1.00
29093;DHT22;16167;48.768;14.984;2024-03-23T09:51:22;19.80;1.00
29093;DHT22;16167;48.768;14.984;2024-03-23T09:53:49;19.90;1.00
29093;DHT22;16167;48.768;14.984;2024-03-23T09:56:15;20.40;1.00
29093;DHT22;16167;48.768;14.984;2024-03-23T09:58:43;20.50;1.00
29093;DHT22;16167;48.768;14.984;2024-03-23T10:01:09;20.50;1.00
29093;DHT22;16167;48.768;14.984;2024-03-23T10:03:43;20.60;1.00
29093;DHT22;16167;48.768;14.984;2024-03-23T10:06:11;21.10;1.00
29093;DHT22;16167;48.768;14.984;2024-03-23T10:08:38;21.40;1.00
29093;DHT22;16167;48.768;14.984;2024-03-23T10:11:14;21.10;1.00
29093;DHT22;16167;48.768;14.984;2024-03-23T10:13:42;20.80;1.00
29093;DHT22;16167;48.768;14.984;2024-03-23T10:16:08;20.40;1.00
29093;DHT22;16167;48.768;14.984;2024-03-23T10:18:39;20.00;1.00
29093;DHT22;16167;48.768;14.984;2024-03-23T10:21:08;19.70;1.00
29093;DHT22;16167;48.768;14.984;2024-03-23T10:23:38;19.50;1.00
29093;DHT22;16167;48.768;14.984;2024-03-23T10:26:16;19.20;1.00
29093;DHT22;16167;48.768;14.984;2024-03-23T10:28:50;18.90;1.00
29093;DHT22;16167;48.768;14.984;2024-03-23T10:31:17;18.60;1.00
29093;DHT22;16167;48.768;14.984;2024-03-23T10:33:45;18.10;1.00
29093;DHT22;16167;48.768;14.984;2024-03-23T10:36:11;17.70;1.00
29093;DHT22;16167;48.768;14.984;2024-03-23T10:38:40;17.30;1.00
29093;DHT22;16167;48.768;14.984;2024-03-23T10:41:06;17.20;1.00
29093;DHT22;16167;48.768;14.984;2024-03-23T10:43:34;17.00;1.00
29093;DHT22;16167;48.768;14.984;2024-03-23T10:46:00;16.70;1.00
29093;DHT22;16167;48.768;14.984;2024-03-23T10:48:27;16.60;1.00
29093;DHT22;16167;48.768;14.984;2024-03-23T10:50:53;16.40;1.00
29093;DHT22;16167;48.768;14.984;2024-03-23T10:53:20;16.00;1.00
29093;DHT22;16167;48.768;14.984;2024-03-23T10:55:49;15.80;1.00
29093;DHT22;16167;48.768;14.984;2024-03-23T10:58:17;15.50;1.00
29093;DHT22;16167;48.768;14.984;2024-03-23T11:00:43;15.10;1.00
29093;DHT22;16167;48.768;14.984;2024-03-23T11:03:29;14.90;1.00
29093;DHT22;16167;48.768;14.984;2024-03-23T11:05:55;14.60;1.00
29093;DHT22;16167;48.768;14.984;2024-03-23T11:08:32;14.40;1.00
29093;DHT22;16167;48.768;14.984;2024-03-23T11:11:13;14.10;1.00
29093;DHT22;16167;48.768;14.984;2024-03-23T11:13:40;13.90;1.00
29093;DHT22;16167;48.768;14.984;2024-03-23T11:16:13;13.70;1.00
29093;DHT22;16167;48.768;14.984;2024-03-23T11:18:41;13.60;1.00
29093;DHT22;16167;48.768;14.984;2024-03-23T11:21:07;13.50;1.00
29093;DHT22;16167;48.768;14.984;2024-03-23T11:23:34;13.40;1.00
29093;DHT22;16167;48.768;14.984;2024-03-23T11:26:00;13.20;1.00
29093;DHT22;16167;48.768;14.984;2024-03-23T11:28:30;13.20;1.00
29093;DHT22;16167;48.768;14.984;2024-03-23T11:30:56;13.00;1.00
29093;DHT22;16167;48.768;14.984;2024-03-23T11:33:23;12.80;1.00
29093;DHT22;16167;48.768;14.984;2024-03-23T11:35:49;12.70;1.00
29093;DHT22;16167;48.768;14.984;2024-03-23T11:38:17;12.60;1.00
29093;DHT22;16167;48.768;14.984;2024-03-23T11:40:45;12.60;1.00
29093;DHT22;16167;48.768;14.984;2024-03-23T11:43:13;12.40;1.00
29093;DHT22;16167;48.768;14.984;2024-03-23T11:45:42;12.20;1.00
29093;DHT22;16167;48.768;14.984;2024-03-23T11:48:09;12.10;1.00
29093;DHT22;16167;48.768;14.984;2024-03-23T11:50:39;12.00;1.00
29093;DHT22;16167;48.768;14.984;2024-03-23T11:53:12;11.90;1.00
29093;DHT22;16167;48.768;14.984;2024-03-23T11:55:39;11.80;1.00
29093;DHT22;16167;48.768;14.984;2024-03-23T11:58:06;11.80;1.00
29093;DHT22;16167;48.768;14.984;2024-03-23T12:00:32;11.70;1.00
29093;DHT22;16167;48.768;14.984;2024-03-23T12:03:01;11.60;1.00
29093;DHT22;16167;48.768;14.984;2024-03-23T12:05:27;11.50;1.00
29093;DHT22;16167;48.768;14.984;2024-03-23T12:07:55;11.50;1.00
29093;DHT22;16167;48.768;14.984;2024-03-23T12:10:22;11.40;1.00
29093;DHT22;16167;48.768;14.984;2024-03-23T12:12:58;11.40;1.00
29093;DHT22;16167;48.768;14.984;2024-03-23T12:15:25;11.40;1.00
29093;DHT22;16167;48.768;14.984;2024-03-23T12:18:06;11.40;1.00
29093;DHT22;16167;48.768;14.984;2024-03-23T12:20:33;11.40;1.00
29093;DHT22;16167;48.768;14.984;2024-03-23T12:23:06;11.30;1.00
29093;DHT22;16167;48.768;14.984;2024-03-23T12:25:34;11.30;1.00
29093;DHT22;16167;48.768;14.984;2024-03-23T12:28:00;11.20;1.00
29093;DHT22;16167;48.768;14.984;2024-03-23T12:30:27;11.20;1.00
29093;DHT22;16167;48.768;14.984;2024-03-23T12:32:53;11.10;1.00
29093;DHT22;16167;48.768;14.984;2024-03-23T12:35:21;11.10;1.00
29093;DHT22;16167;48.768;14.984;2024-03-23T12:37:47;11.10;1.00
29093;DHT22;16167;48.768;14.984;2024-03-23T12:40:14;11.10;1.00
29093;DHT22;16167;48.768;14.984;2024-03-23T12:42:40;11.10;1.00
29093;DHT22;16167;48.768;14.984;2024-03-23T12:45:08;11.00;1.00
29093;DHT22;16167;48.768;14.984;2024-03-23T12:47:34;10.90;1.00
29093;DHT22;16167;48.768;14.984;2024-03-23T12:50:01;10.90;1.00
29093;DHT22;16167;48.768;14.984;2024-03-23T12:52:28;10.90;1.00
29093;DHT22;16167;48.768;14.984;2024-03-23T12:54:55;10.80;1.00
29093;DHT22;16167;48.768;14.984;2024-03-23T12:57:22;10.70;1.00
29093;DHT22;16167;48.768;14.984;2024-03-23T12:59:50;10.60;1.00
29093;DHT22;16167;48.768;14.984;2024-03-23T13:02:17;10.60;1.00
29093;DHT22;16167;48.768;14.984;2024-03-23T13:04:45;10.50;1.00
29093;DHT22;16167;48.768;14.984;2024-03-23T13:07:11;10.50;1.00
29093;DHT22;16167;48.768;14.984;2024-03-23T13:09:39;10.60;1.00
29093;DHT22;16167;48.768;14.984;2024-03-23T13:12:06;10.60;1.00
29093;DHT22;16167;48.768;14.984;2024-03-23T13:14:33;10.60;1.00
29093;DHT22;16167;48.768;14.984;2024-03-23T13:16:59;10.60;1.00
29093;DHT22;16167;48.768;14.984;2024-03-23T13:19:27;10.60;1.00
29093;DHT22;16167;48.768;14.984;2024-03-23T13:21:56;10.60;1.00
29093;DHT22;16167;48.768;14.984;2024-03-23T13:24:24;10.60;1.00
29093;DHT22;16167;48.768;14.984;2024-03-23T13:26:51;10.60;1.00
29093;DHT22;16167;48.768;14.984;2024-03-23T13:29:19;10.60;1.00
29093;DHT22;16167;48.768;14.984;2024-03-23T13:31:45;10.40;1.00
29093;DHT22;16167;48.768;14.984;2024-03-23T13:34:12;10.20;1.00
29093;DHT22;16167;48.768;14.984;2024-03-23T13:36:40;9.80;1.00
29093;DHT22;16167;48.768;14.984;2024-03-23T13:39:07;9.70;1.00
29093;DHT22;16167;48.768;14.984;2024-03-23T13:41:37;9.40;1.00
29093;DHT22;16167;48.768;14.984;2024-03-23T13:44:06;9.20;1.00
29093;DHT22;16167;48.768;14.984;2024-03-23T13:46:33;9.10;1.00
29093;DHT22;16167;48.768;14.984;2024-03-23T13:48:59;9.10;1.00
29093;DHT22;16167;48.768;14.984;2024-03-23T13:51:26;9.00;1.00
29093;DHT22;16167;48.768;14.984;2024-03-23T13:53:53;9.00;1.00
29093;DHT22;16167;48.768;14.984;2024-03-23T13:56:20;9.00;1.00
29093;DHT22;16167;48.768;14.984;2024-03-23T13:58:46;8.90;1.00
29093;DHT22;16167;48.768;14.984;2024-03-23T14:01:15;8.90;1.00
29093;DHT22;16167;48.768;14.984;2024-03-23T14:03:41;8.90;1.00
29093;DHT22;16167;48.768;14.984;2024-03-23T14:06:08;9.00;1.00
29093;DHT22;16167;48.768;14.984;2024-03-23T14:08:35;9.00;1.00
29093;DHT22;16167;48.768;14.984;2024-03-23T14:11:04;8.90;1.00
29093;DHT22;16167;48.768;14.984;2024-03-23T14:13:30;8.90;1.00
29093;DHT22;16167;48.768;14.984;2024-03-23T14:15:57;8.90;1.00
29093;DHT22;16167;48.768;14.984;2024-03-23T14:18:25;8.90;1.00
29093;DHT22;16167;48.768;14.984;2024-03-23T14:20:56;8.90;1.00
29093;DHT22;16167;48.768;14.984;2024-03-23T14:23:24;9.00;1.00
29093;DHT22;16167;48.768;14.984;2024-03-23T14:25:54;9.00;1.00
29093;DHT22;16167;48.768;14.984;2024-03-23T14:28:20;9.10;1.00
29093;DHT22;16167;48.768;14.984;2024-03-23T14:30:48;9.10;1.00
29093;DHT22;16167;48.768;14.984;2024-03-23T14:33:15;9.20;1.00
29093;DHT22;16167;48.768;14.984;2024-03-23T14:35:43;9.20;1.00
29093;DHT22;16167;48.768;14.984;2024-03-23T14:38:17;9.20;1.00
29093;DHT22;16167;48.768;14.984;2024-03-23T14:40:44;9.20;1.00
29093;DHT22;16167;48.768;14.984;2024-03-23T14:43:10;9.30;1.00
29093;DHT22;16167;48.768;14.984;2024-03-23T14:45:37;9.20;1.00
29093;DHT22;16167;48.768;14.984;2024-03-23T14:48:03;9.20;1.00
29093;DHT22;16167;48.768;14.984;2024-03-23T14:50:30;9.10;1.00
29093;DHT22;16167;48.768;14.984;2024-03-23T14:52:58;9.20;1.00
29093;DHT22;16167;48.768;14.984;2024-03-23T14:55:25;9.20;1.00
29093;DHT22;16167;48.768;14.984;2024-03-23T14:57:51;9.30;1.00
29093;DHT22;16167;48.768;14.984;2024-03-23T15:00:18;9.40;1.00
29093;DHT22;16167;48.768;14.984;2024-03-23T15:02:44;9.40;1.00
29093;DHT22;16167;48.768;14.984;2024-03-23T15:05:12;9.30;1.00
29093;DHT22;16167;48.768;14.984;2024-03-23T15:07:38;9.20;1.00
29093;DHT22;16167;48.768;14.984;2024-03-23T15:10:08;9.10;1.00
29093;DHT22;16167;48.768;14.984;2024-03-23T15:12:36;8.90;1.00
29093;DHT22;16167;48.768;14.984;2024-03-23T15:15:03;8.70;1.00
29093;DHT22;16167;48.768;14.984;2024-03-23T15:17:29;8.60;1.00
29093;DHT22;16167;48.768;14.984;2024-03-23T15:20:00;8.60;1.00
29093;DHT22;16167;48.768;14.984;2024-03-23T15:22:26;8.50;1.00
29093;DHT22;16167;48.768;14.984;2024-03-23T15:24:53;8.40;1.00
29093;DHT22;16167;48.768;14.984;2024-03-23T15:27:20;8.30;1.00
29093;DHT22;16167;48.768;14.984;2024-03-23T15:29:47;8.30;1.00
29093;DHT22;16167;48.768;14.984;2024-03-23T15:32:13;8.30;1.00
29093;DHT22;16167;48.768;14.984;2024-03-23T15:34:43;8.30;1.00
29093;DHT22;16167;48.768;14.984;2024-03-23T15:37:09;8.30;1.00
29093;DHT22;16167;48.768;14.984;2024-03-23T15:39:36;8.30;1.00
29093;DHT22;16167;48.768;14.984;2024-03-23T15:42:02;8.20;1.00
29093;DHT22;16167;48.768;14.984;2024-03-23T15:44:31;8.20;1.00
29093;DHT22;16167;48.768;14.984;2024-03-23T15:46:57;8.20;1.00
29093;DHT22;16167;48.768;14.984;2024-03-23T15:49:24;8.10;1.00
29093;DHT22;16167;48.768;14.984;2024-03-23T15:51:50;8.10;1.00
29093;DHT22;16167;48.768;14.984;2024-03-23T15:54:17;8.10;1.00
29093;DHT22;16167;48.768;14.984;2024-03-23T15:56:43;8.00;1.00
29093;DHT22;16167;48.768;14.984;2024-03-23T15:59:10;8.00;1.00
29093;DHT22;16167;48.768;14.984;2024-03-23T16:01:37;8.00;1.00
29093;DHT22;16167;48.768;14.984;2024-03-23T16:04:04;7.90;1.00
29093;DHT22;16167;48.768;14.984;2024-03-23T16:06:31;7.90;1.00
29093;DHT22;16167;48.768;14.984;2024-03-23T16:08:58;8.00;1.00
29093;DHT22;16167;48.768;14.984;2024-03-23T16:11:24;8.00;1.00
29093;DHT22;16167;48.768;14.984;2024-03-23T16:13:51;7.90;1.00
29093;DHT22;16167;48.768;14.984;2024-03-23T16:16:17;7.90;1.00
29093;DHT22;16167;48.768;14.984;2024-03-23T16:18:49;7.90;1.00
29093;DHT22;16167;48.768;14.984;2024-03-23T16:21:15;7.80;1.00
29093;DHT22;16167;48.768;14.984;2024-03-23T16:23:43;7.80;1.00
29093;DHT22;16167;48.768;14.984;2024-03-23T16:26:10;7.80;1.00
29093;DHT22;16167;48.768;14.984;2024-03-23T16:28:38;7.80;1.00
29093;DHT22;16167;48.768;14.984;2024-03-23T16:31:04;7.80;1.00